createdAt,value
2023-03-29T00:03:45.528Z,2.8
2023-03-29T00:05:49.091Z,2.8
2023-03-29T00:07:54.519Z,2.7
2023-03-29T00:09:57.860Z,3.2
2023-03-29T00:14:05.164Z,3.1
2023-03-29T00:23:26.170Z,3.3
2023-03-29T00:25:29.760Z,3
2023-03-29T00:27:33.418Z,3.4
2023-03-29T00:29:37.118Z,3.1
2023-03-29T00:33:47.428Z,2.8
2023-03-29T00:35:51.089Z,3
2023-03-29T00:37:54.726Z,3.3
2023-03-29T00:39:58.354Z,3.2
2023-03-29T00:44:05.638Z,3
2023-03-29T00:46:12.411Z,3.7
2023-03-29T00:48:16.032Z,2.8
2023-03-29T00:50:19.621Z,2.8
2023-03-29T00:52:23.277Z,3.2
2023-03-29T00:54:26.955Z,3.1
2023-03-29T00:56:30.542Z,3.2
2023-03-29T01:00:40.902Z,3.1
2023-03-29T01:08:55.493Z,2.9
2023-03-29T01:21:35.212Z,2.9
2023-03-29T01:23:38.825Z,2.6
2023-03-29T01:25:42.480Z,3.6
2023-03-29T01:27:49.125Z,2.9
2023-03-29T01:29:52.824Z,2.6
2023-03-29T01:31:56.480Z,2.3
2023-03-29T01:34:00.139Z,2.8
2023-03-29T01:36:03.786Z,2.8
2023-03-29T01:38:07.498Z,2.5
2023-03-29T01:42:17.736Z,2.6
2023-03-29T01:44:21.346Z,3.3
2023-03-29T01:46:25.101Z,2.8
2023-03-29T01:50:32.309Z,2.4
2023-03-29T01:54:39.568Z,2.2
2023-03-29T01:56:46.298Z,2.7
2023-03-29T01:58:50.192Z,1.8
2023-03-29T02:00:53.883Z,2.1
2023-03-29T02:02:57.530Z,2.3
2023-03-29T02:05:01.116Z,2.1
2023-03-29T02:07:04.773Z,2.3
2023-03-29T02:09:08.406Z,2
2023-03-29T02:11:15.109Z,2.3
2023-03-29T02:13:18.746Z,1.9
2023-03-29T02:15:22.368Z,2.3
2023-03-29T02:16:25.740Z,2
2023-03-29T02:24:43.522Z,2.2
2023-03-29T02:30:54.480Z,2.1
2023-03-29T02:32:58.091Z,2.8
2023-03-29T02:37:05.380Z,2
2023-03-29T02:39:12.066Z,2.4
2023-03-29T02:41:15.663Z,2
2023-03-29T02:43:19.336Z,2.5
2023-03-29T02:45:22.984Z,2.5
2023-03-29T02:49:30.226Z,2.7
2023-03-29T02:57:47.845Z,2.4
2023-03-29T02:59:51.517Z,2.4
2023-03-29T03:13:19.732Z,3.2
2023-03-29T03:15:23.369Z,2.3
2023-03-29T03:17:27.041Z,3.1
2023-03-29T03:19:30.635Z,2.6
2023-03-29T03:21:37.321Z,3.4
2023-03-29T03:25:44.606Z,2.7
2023-03-29T03:27:48.255Z,2.9
2023-03-29T03:29:51.888Z,3.5
2023-03-29T03:33:59.143Z,3
2023-03-29T03:36:05.895Z,3.2
2023-03-29T03:38:09.510Z,3.7
2023-03-29T03:40:13.141Z,3.4
2023-03-29T03:48:27.678Z,4.4
2023-03-29T03:52:38.020Z,3.5
2023-03-29T03:56:45.323Z,4.3
2023-03-29T03:58:48.918Z,3.9
2023-03-29T04:02:56.346Z,3.8
2023-03-29T04:07:06.509Z,4.3
2023-03-29T04:10:13.504Z,4.2
2023-03-29T04:12:17.133Z,4.3
2023-03-29T04:14:20.799Z,3.4
2023-03-29T04:16:24.454Z,3.8
2023-03-29T04:18:31.246Z,4.9
2023-03-29T04:20:34.763Z,4.3
2023-03-29T04:24:42.376Z,4.5
2023-03-29T04:26:46.005Z,4.1
2023-03-29T04:30:53.308Z,4.4
2023-03-29T04:32:59.993Z,4.1
2023-03-29T04:35:03.620Z,5.1
2023-03-29T04:37:07.269Z,4.2
2023-03-29T04:41:14.518Z,4.6
2023-03-29T04:43:18.155Z,4
2023-03-29T04:45:21.889Z,4.3
2023-03-29T04:55:43.030Z,3.7
2023-03-29T04:57:46.678Z,4
2023-03-29T04:59:50.286Z,4.4
2023-03-29T05:12:36.013Z,4.2
2023-03-29T05:14:42.676Z,4.2
2023-03-29T05:18:49.935Z,4.4
2023-03-29T05:20:53.552Z,3.7
2023-03-29T05:22:57.227Z,3.9
2023-03-29T05:25:00.838Z,3.9
2023-03-29T05:35:22.151Z,4.1
2023-03-29T05:39:29.437Z,4.6
2023-03-29T05:43:39.772Z,4.5
2023-03-29T05:45:43.463Z,3.7
2023-03-29T05:47:47.072Z,3.8
2023-03-29T05:58:08.285Z,4.2
2023-03-29T06:00:11.947Z,4.1
2023-03-29T06:02:15.653Z,4.3
2023-03-29T06:03:21.794Z,4.2
2023-03-29T06:05:24.008Z,4.3
2023-03-29T06:07:27.698Z,4.1
2023-03-29T06:09:31.312Z,3.5
2023-03-29T06:11:37.989Z,3.7
2023-03-29T06:13:41.628Z,3.3
2023-03-29T06:15:45.272Z,3.7
2023-03-29T06:17:48.947Z,3.5
2023-03-29T06:19:52.570Z,4
2023-03-29T06:21:56.179Z,3.2
2023-03-29T06:23:59.811Z,3.3
2023-03-29T06:26:06.514Z,3.7
2023-03-29T06:28:10.170Z,3.4
2023-03-29T06:30:13.798Z,3.8
2023-03-29T06:32:17.428Z,4
2023-03-29T06:34:21.058Z,3.1
2023-03-29T06:36:24.701Z,4.1
2023-03-29T06:38:29.221Z,4.6
2023-03-29T06:42:39.511Z,3.9
2023-03-29T06:44:43.132Z,3.4
2023-03-29T06:46:46.821Z,3.8
2023-03-29T06:48:50.399Z,3.9
2023-03-29T06:50:54.057Z,3.4
2023-03-29T06:52:57.660Z,3.7
2023-03-29T06:55:04.369Z,4.1
2023-03-29T06:57:08.112Z,3.6
2023-03-29T06:59:11.671Z,3.5
2023-03-29T07:00:15.032Z,3.8
2023-03-29T07:08:32.623Z,3.2
2023-03-29T07:10:36.211Z,3.1
2023-03-29T07:16:47.457Z,4.2
2023-03-29T07:18:50.789Z,3.5
2023-03-29T07:23:01.129Z,3.7
2023-03-29T07:25:04.802Z,3.2
2023-03-29T07:27:08.402Z,3.9
2023-03-29T07:29:12.030Z,3.4
2023-03-29T07:31:15.633Z,3.2
2023-03-29T07:33:19.369Z,3.8
2023-03-29T07:37:29.557Z,3.6
2023-03-29T07:45:44.047Z,4.2
2023-03-29T07:56:05.151Z,3.7
2023-03-29T07:57:08.493Z,3.8
2023-03-29T07:59:12.061Z,3.2
2023-03-29T08:01:18.847Z,4.5
2023-03-29T08:03:19.444Z,3.9
2023-03-29T08:05:40.043Z,4
2023-03-29T08:07:29.565Z,3.7
2023-03-29T08:09:33.153Z,4.3
2023-03-29T08:11:36.723Z,4
2023-03-29T08:13:40.362Z,3.9
2023-03-29T08:17:47.556Z,4.4
2023-03-29T08:19:54.188Z,4.3
2023-03-29T08:21:57.776Z,3.4
2023-03-29T08:24:01.347Z,4.4
2023-03-29T08:28:08.563Z,4.3
2023-03-29T08:32:15.702Z,3.9
2023-03-29T08:34:22.308Z,4.6
2023-03-29T08:36:25.906Z,5.1
2023-03-29T08:38:29.471Z,3.6
2023-03-29T08:40:33.108Z,4.8
2023-03-29T08:42:36.642Z,4.1
2023-03-29T08:44:40.198Z,6
2023-03-29T08:46:43.883Z,5.5
2023-03-29T08:48:50.451Z,6.5
2023-03-29T08:50:54.001Z,5
2023-03-29T08:52:57.618Z,4.9
2023-03-29T09:03:39.264Z,4.9
2023-03-29T09:05:42.705Z,5.6
2023-03-29T09:07:46.302Z,5.2
2023-03-29T09:09:49.842Z,5.4
2023-03-29T09:11:53.424Z,5.9
2023-03-29T09:13:56.975Z,5.8
2023-03-29T09:16:03.705Z,5.1
2023-03-29T09:18:07.197Z,5.6
2023-03-29T09:20:10.747Z,5.8
2023-03-29T09:22:14.281Z,5.9
2023-03-29T09:24:17.822Z,5.2
2023-03-29T09:26:21.363Z,4.9
2023-03-29T09:28:24.996Z,6.1
2023-03-29T09:30:31.568Z,6.6
2023-03-29T09:32:35.134Z,6.8
2023-03-29T09:34:38.681Z,5.3
2023-03-29T09:36:42.239Z,5.4
2023-03-29T09:38:45.785Z,5.3
2023-03-29T09:40:49.328Z,6.2
2023-03-29T09:42:52.884Z,5.1
2023-03-29T09:44:59.559Z,5.7
2023-03-29T09:47:03.034Z,5.3
2023-03-29T09:49:06.604Z,5.2
2023-03-29T09:54:17.024Z,6
2023-03-29T09:56:20.547Z,5.3
2023-03-29T10:04:38.076Z,6.7
2023-03-29T10:06:41.433Z,5
2023-03-29T10:08:44.967Z,11.5
2023-03-29T10:10:48.519Z,5.2
2023-03-29T10:12:55.139Z,4.6
2023-03-29T10:14:58.723Z,4.6
2023-03-29T10:17:02.457Z,5.7
2023-03-29T10:23:12.818Z,4.8
2023-03-29T10:25:16.391Z,4.7
2023-03-29T10:27:23.032Z,4.9
2023-03-29T10:29:26.520Z,4.6
2023-03-29T10:31:30.099Z,4.7
2023-03-29T10:37:40.595Z,4.6
2023-03-29T10:39:44.160Z,4.6
2023-03-29T10:47:01.114Z,5
2023-03-29T10:55:18.222Z,6.1
2023-03-29T11:07:39.186Z,5.6
2023-03-29T11:11:49.264Z,6.7
2023-03-29T11:13:52.759Z,5.7
2023-03-29T11:15:56.279Z,5.5
2023-03-29T11:17:59.745Z,5.3
2023-03-29T11:20:05.058Z,6.1
2023-03-29T11:22:06.721Z,5.8
2023-03-29T11:43:51.109Z,4.9
2023-03-29T11:45:54.569Z,4.8
2023-03-29T11:47:58.086Z,5
2023-03-29T11:50:01.543Z,5.4
2023-03-29T11:52:08.109Z,5.6
2023-03-29T11:54:11.594Z,5.6
2023-03-29T11:56:15.082Z,5.9
2023-03-29T11:58:18.596Z,4.4
2023-03-29T12:00:23.615Z,5
2023-03-29T12:02:27.167Z,5.5
2023-03-29T12:04:30.604Z,4.8
2023-03-29T12:10:44.094Z,3.9
2023-03-29T12:12:47.592Z,5.2
2023-03-29T12:14:51.044Z,5.1
2023-03-29T12:16:54.597Z,4.7
2023-03-29T12:18:58.037Z,4.6
2023-03-29T12:21:04.849Z,4.1
2023-03-29T12:27:15.066Z,4.3
2023-03-29T12:29:18.532Z,4.5
2023-03-29T12:33:25.516Z,5.1
2023-03-29T12:35:32.108Z,5.7
2023-03-29T12:37:35.590Z,5.2
2023-03-29T12:39:39.098Z,4.8
2023-03-29T12:42:09.000Z,4.9
2023-03-29T12:44:12.499Z,6.6
2023-03-29T12:46:15.990Z,6.6
2023-03-29T12:48:22.550Z,5.4
2023-03-29T12:50:26.001Z,6.2
2023-03-29T12:52:29.556Z,5.9
2023-03-29T12:54:33.064Z,5.6
2023-03-29T12:56:36.534Z,6
2023-03-29T12:58:40.050Z,8.5
2023-03-29T13:00:43.553Z,6.5
2023-03-29T13:02:50.298Z,6.9
2023-03-29T13:04:53.686Z,7
2023-03-29T13:06:57.148Z,5.7
2023-03-29T13:09:00.674Z,5.6
2023-03-29T13:13:07.697Z,6.7
2023-03-29T13:15:11.172Z,6.7
2023-03-29T13:17:18.982Z,6.7
2023-03-29T13:19:21.287Z,6.5
2023-03-29T13:21:24.824Z,6.8
2023-03-29T13:23:28.296Z,5.7
2023-03-29T13:25:31.818Z,6.3
2023-03-29T13:27:35.344Z,7.1
2023-03-29T13:29:38.845Z,7.8
2023-03-29T13:31:45.452Z,6.4
2023-03-29T13:36:55.783Z,6.6
2023-03-29T13:38:59.326Z,6.3
2023-03-29T13:41:02.807Z,6.4
2023-03-29T13:43:06.429Z,7
2023-03-29T13:45:12.920Z,6.1
2023-03-29T13:47:16.490Z,7.5
2023-03-29T13:51:23.501Z,6.8
2023-03-29T13:53:26.990Z,7.2
2023-03-29T13:55:32.788Z,5.9
2023-03-29T13:57:34.021Z,7.3
2023-03-29T13:59:40.687Z,8.2
2023-03-29T14:01:44.178Z,8.5
2023-03-29T14:03:47.677Z,7.7
2023-03-29T14:05:51.199Z,7.6
2023-03-29T14:16:11.935Z,6.8
2023-03-29T14:18:15.351Z,6.7
2023-03-29T14:20:18.867Z,8.5
2023-03-29T14:24:25.895Z,7.1
2023-03-29T14:26:29.361Z,7.5
2023-03-29T14:28:35.960Z,8.4
2023-03-29T14:30:39.477Z,7.5
2023-03-29T14:32:43.066Z,7.1
2023-03-29T14:33:46.326Z,8
2023-03-29T14:35:49.959Z,6.8
2023-03-29T14:37:53.370Z,10.5
2023-03-29T14:39:56.868Z,12.6
2023-03-29T14:46:10.528Z,18
2023-03-29T14:52:21.023Z,7.8
2023-03-29T14:56:31.135Z,6.6
2023-03-29T15:00:38.157Z,6.2
2023-03-29T15:02:41.769Z,6.2
2023-03-29T15:04:45.230Z,6.8
2023-03-29T15:06:48.790Z,7.2
2023-03-29T15:09:04.272Z,6.2
2023-03-29T15:10:58.853Z,7.7
2023-03-29T15:13:02.381Z,6.6
2023-03-29T15:15:05.869Z,6.3
2023-03-29T15:17:09.433Z,6.3
2023-03-29T15:19:12.910Z,6.6
2023-03-29T15:21:18.028Z,7.2
2023-03-29T15:23:19.939Z,6.1
2023-03-29T15:25:26.524Z,8.4
2023-03-29T15:29:35.200Z,6.7
2023-03-29T15:30:36.874Z,12.3
2023-03-29T15:32:40.461Z,6.9
2023-03-29T15:36:47.456Z,6.7
2023-03-29T15:38:53.983Z,7
2023-03-29T15:40:57.569Z,5.7
2023-03-29T15:43:01.011Z,6.6
2023-03-29T15:45:04.498Z,6.6
2023-03-29T15:47:08.837Z,5.7
2023-03-29T15:49:12.350Z,6.5
2023-03-29T15:51:15.831Z,16.9
2023-03-29T15:53:22.409Z,7.8
2023-03-29T15:55:25.935Z,14
2023-03-29T15:59:32.942Z,25.6
2023-03-29T16:01:36.498Z,23.5
2023-03-29T16:03:40.024Z,9.9
2023-03-29T16:05:43.505Z,18
2023-03-29T16:11:57.162Z,22.9
2023-03-29T16:16:04.343Z,18.8
2023-03-29T16:18:07.771Z,13.6
2023-03-29T16:20:11.233Z,8.8
2023-03-29T16:22:17.826Z,14.6
2023-03-29T16:24:21.365Z,15.9
2023-03-29T16:26:25.122Z,7.4
2023-03-29T16:45:20.389Z,9
2023-03-29T16:47:23.759Z,8.1
2023-03-29T16:49:30.333Z,8.6
2023-03-29T16:51:33.856Z,7.5
2023-03-29T16:55:40.898Z,10.4
2023-03-29T16:59:47.917Z,6.2
2023-03-29T17:01:51.576Z,7.1
2023-03-29T17:03:58.011Z,7.6
2023-03-29T17:12:12.038Z,6
2023-03-29T17:14:15.544Z,5.9
2023-03-29T17:16:19.116Z,6.8
2023-03-29T17:23:36.132Z,53.4
2023-03-29T17:25:39.568Z,20.3
2023-03-29T17:27:43.062Z,18.7
2023-03-29T17:36:00.309Z,8.8
2023-03-29T17:40:07.255Z,7.2
2023-03-29T17:42:10.757Z,7.1
2023-03-29T17:44:14.292Z,5.8
2023-03-29T17:46:20.964Z,6.1
2023-03-29T17:48:24.404Z,6.4
2023-03-29T17:50:27.914Z,6.3
2023-03-29T17:52:31.450Z,6.5
2023-03-29T18:00:50.150Z,6.2
2023-03-29T18:02:55.434Z,6.4
2023-03-29T18:09:04.220Z,8.3
2023-03-29T18:13:11.274Z,6
2023-03-29T18:15:17.872Z,6.8
2023-03-29T18:17:21.430Z,5.7
2023-03-29T18:19:24.910Z,6.2
2023-03-29T18:20:28.196Z,6.2
2023-03-29T18:22:31.714Z,5.9
2023-03-29T18:24:35.273Z,5.8
2023-03-29T18:26:38.768Z,5.3
2023-03-29T18:28:45.351Z,4.9
2023-03-29T18:30:48.905Z,6.8
2023-03-29T18:32:52.497Z,5.1
2023-03-29T18:34:55.949Z,6.1
2023-03-29T18:36:59.442Z,6.3
2023-03-29T18:39:02.975Z,5.7
2023-03-29T18:41:06.484Z,6
2023-03-29T18:51:27.133Z,5.3
2023-03-29T18:53:30.611Z,4.5
2023-03-29T18:55:34.111Z,5.3
2023-03-29T18:57:40.695Z,5.5
2023-03-29T18:59:44.236Z,5.7
2023-03-29T19:01:47.776Z,4.5
2023-03-29T19:12:08.334Z,6.5
2023-03-29T19:14:11.834Z,6.3
2023-03-29T19:16:15.384Z,5.8
2023-03-29T19:17:18.641Z,6.4
2023-03-29T19:19:22.165Z,9.1
2023-03-29T19:21:25.638Z,6.5
2023-03-29T19:23:29.140Z,7.1
2023-03-29T19:25:35.733Z,12.3
2023-03-29T19:27:39.248Z,8.3
2023-03-29T19:29:42.772Z,16.1
2023-03-29T19:31:46.345Z,21.5
2023-03-29T19:33:49.777Z,10.8
2023-03-29T19:42:06.938Z,6.9
2023-03-29T19:44:10.443Z,9.9
2023-03-29T20:00:41.961Z,6.5
2023-03-29T20:02:45.262Z,6
2023-03-29T20:04:48.738Z,7.7
2023-03-29T20:08:58.873Z,6.6
2023-03-29T20:11:02.822Z,5.8
2023-03-29T20:13:05.933Z,6.2
2023-03-29T20:15:30.157Z,6.7
2023-03-29T20:17:33.755Z,6.8
2023-03-29T20:19:37.234Z,8.6
2023-03-29T20:21:43.873Z,6.7
2023-03-29T20:25:50.918Z,8.1
2023-03-29T20:27:54.461Z,8.4
2023-03-29T20:32:01.616Z,10.5
2023-03-29T20:36:11.784Z,11.2
2023-03-29T20:38:15.222Z,9.9
2023-03-29T20:42:22.288Z,8.5
2023-03-29T20:44:25.814Z,7.5
2023-03-29T20:46:30.019Z,7.5
2023-03-29T20:48:32.928Z,8.3
2023-03-29T20:50:39.540Z,7.1
2023-03-29T20:52:43.072Z,6.9
2023-03-29T20:56:50.161Z,8.5
2023-03-29T20:58:53.642Z,7.6
2023-03-29T21:00:57.204Z,7.2
2023-03-29T21:03:00.892Z,6.6
2023-03-29T21:05:07.359Z,7.4
2023-03-29T21:07:10.940Z,7.4
2023-03-29T21:09:14.458Z,7.4
2023-03-29T21:10:17.768Z,6.8
2023-03-29T21:16:28.445Z,6.9
2023-03-29T21:37:10.018Z,6.5
2023-03-29T21:39:13.540Z,6.7
2023-03-29T21:49:34.333Z,5.8
2023-03-29T21:51:37.839Z,5.7
2023-03-29T21:53:41.402Z,7.1
2023-03-29T21:55:44.917Z,5.5
2023-03-29T21:57:48.508Z,5.6
2023-03-29T21:59:52.103Z,5.7
2023-03-29T22:01:58.727Z,5.6
2023-03-29T22:04:02.220Z,5.4
2023-03-29T22:06:05.737Z,5.5
2023-03-29T22:07:09.035Z,6
2023-03-29T22:09:12.591Z,5.4
2023-03-29T22:11:16.108Z,5.4
2023-03-29T22:23:40.354Z,5.2
2023-03-29T22:29:53.997Z,5.5
2023-03-29T22:36:04.663Z,5.9
2023-03-29T22:38:08.194Z,6.9
2023-03-29T22:40:11.729Z,5.1
2023-03-29T22:42:15.278Z,6
2023-03-29T22:44:21.892Z,4.7
2023-03-29T22:46:25.523Z,5.6
2023-03-29T22:48:29.008Z,6.3
2023-03-29T22:50:32.541Z,5.5
2023-03-29T22:52:36.079Z,5.5
2023-03-29T22:54:39.653Z,5.6
2023-03-29T22:56:43.184Z,4.7
2023-03-29T23:04:00.242Z,5.2
2023-03-29T23:06:03.764Z,7
2023-03-29T23:08:07.308Z,5.4
2023-03-29T23:10:10.856Z,3.8
2023-03-29T23:12:17.460Z,5.2
2023-03-29T23:14:21.015Z,4.3
2023-03-29T23:18:28.093Z,4.3
2023-03-29T23:20:31.607Z,4.1
2023-03-29T23:22:35.200Z,3.6
2023-03-29T23:24:38.736Z,3.7
2023-03-29T23:30:52.527Z,2.8
2023-03-29T23:32:55.928Z,3.1
2023-03-29T23:34:59.511Z,2.6
2023-03-29T23:37:03.063Z,3.7
2023-03-29T23:39:06.535Z,2.8
2023-03-29T23:41:13.270Z,2.8
2023-03-29T23:43:16.717Z,3.4
2023-03-29T23:45:20.249Z,2.8
2023-03-29T23:49:27.269Z,2.7
2023-03-29T23:51:30.820Z,2.4
2023-03-29T23:53:35.872Z,2.3
2023-03-29T23:57:45.961Z,3.3
2023-03-29T23:59:49.464Z,2.5
